Time;durP1;ratioP1;P1;durP2;ratioP2;P2;SDS_P1;SDS_P2;PMS_P1;PMS_P2;Temp;Humidity;BMP_temperature;BMP_pressure;BME280_temperature;BME280_humidity;BME280_pressure;Samples;Min_cycle;Max_cycle;Signal;HPM_P1;HPM_P2
2022/02/13 00:00:23;;;;;;;10.47;8.03;;;1.80;99.90;;;;;;5040643;28;20191;-86
2022/02/13 00:02:48;;;;;;;12.07;7.90;;;2.10;99.90;;;;;;5043282;28;20208;-88
2022/02/13 00:05:14;;;;;;;9.10;7.20;;;1.80;99.90;;;;;;5048738;28;20181;-86
2022/02/13 00:07:40;;;;;;;8.90;7.43;;;2.00;99.90;;;;;;5050324;28;20217;-89
2022/02/13 00:10:08;;;;;;;8.33;7.47;;;1.50;99.90;;;;;;5053913;28;20642;-86
2022/02/13 00:12:34;;;;;;;9.55;7.65;;;1.50;99.90;;;;;;5061936;28;20437;-88
2022/02/13 00:15:00;;;;;;;8.93;7.82;;;1.70;99.90;;;;;;5048821;28;20194;-87
2022/02/13 00:17:26;;;;;;;10.00;7.63;;;1.50;99.90;;;;;;5041154;28;20193;-88
2022/02/13 00:19:51;;;;;;;11.20;7.77;;;1.70;99.90;;;;;;5048392;28;20976;-88
2022/02/13 00:22:17;;;;;;;8.60;7.30;;;1.80;99.90;;;;;;5055587;28;20188;-86
2022/02/13 00:24:44;;;;;;;9.00;7.73;;;1.60;99.90;;;;;;5039268;28;20211;-88
2022/02/13 00:27:11;;;;;;;7.70;6.90;;;2.10;99.90;;;;;;5043637;28;20178;-89
2022/02/13 00:29:36;;;;;;;9.30;7.35;;;2.00;99.90;;;;;;5049147;28;20264;-88
2022/02/13 00:32:03;;;;;;;9.17;8.20;;;1.70;99.90;;;;;;5050984;28;20284;-88
2022/02/13 00:34:28;;;;;;;9.80;7.82;;;1.80;99.90;;;;;;5060828;28;20351;-88
2022/02/13 00:36:54;;;;;;;9.67;8.33;;;2.20;99.90;;;;;;5048090;28;20260;-88
2022/02/13 00:39:20;;;;;;;12.10;8.87;;;1.90;99.90;;;;;;5053484;28;20185;-89
2022/02/13 00:41:46;;;;;;;9.32;7.53;;;1.60;99.90;;;;;;5040223;28;20669;-88
2022/02/13 00:44:11;;;;;;;10.07;7.33;;;1.70;99.90;;;;;;5050324;28;20233;-86
2022/02/13 00:46:37;;;;;;;9.50;7.87;;;1.80;99.90;;;;;;5055595;28;20181;-88
2022/02/13 00:49:03;;;;;;;9.93;7.40;;;2.10;99.90;;;;;;5046747;28;20647;-85
2022/02/13 00:51:28;;;;;;;9.40;7.60;;;1.60;99.90;;;;;;5049770;28;20513;-86
2022/02/13 00:53:54;;;;;;;9.20;7.23;;;1.60;99.90;;;;;;5051336;28;20239;-86
2022/02/13 00:56:20;;;;;;;12.07;7.87;;;1.70;99.90;;;;;;5051441;28;20629;-89
2022/02/13 00:58:46;;;;;;;10.02;8.20;;;1.60;99.90;;;;;;5043495;28;20196;-86
2022/02/13 01:01:13;;;;;;;10.63;8.33;;;2.10;99.90;;;;;;5051341;28;20185;-89
2022/02/13 01:03:39;;;;;;;10.55;7.65;;;1.50;99.90;;;;;;5046886;28;20218;-87
2022/02/13 01:06:05;;;;;;;11.80;7.55;;;1.60;99.90;;;;;;5049128;28;20182;-86
2022/02/13 01:08:31;;;;;;;9.37;6.93;;;1.40;99.90;;;;;;5052652;28;20277;-86
2022/02/13 01:10:56;;;;;;;8.38;7.50;;;2.00;99.90;;;;;;5046959;28;20456;-86
2022/02/13 01:13:22;;;;;;;9.23;7.43;;;1.60;99.90;;;;;;5048860;28;20236;-86
2022/02/13 01:15:48;;;;;;;9.70;7.83;;;1.90;99.90;;;;;;5050420;28;20197;-86
2022/02/13 01:18:13;;;;;;;10.97;8.00;;;1.40;99.90;;;;;;5052046;28;20209;-86
2022/02/13 01:20:39;;;;;;;10.30;9.03;;;1.60;99.90;;;;;;5051379;28;20185;-89
2022/02/13 01:23:05;;;;;;;9.77;8.55;;;1.70;99.90;;;;;;5055268;28;20225;-86
2022/02/13 01:25:31;;;;;;;9.90;8.63;;;2.10;99.90;;;;;;5043451;28;20182;-89
2022/02/13 01:27:56;;;;;;;8.30;7.23;;;1.80;99.90;;;;;;5054938;28;20191;-89
2022/02/13 01:30:22;;;;;;;9.63;7.53;;;1.90;99.90;;;;;;5049733;28;20622;-86
2022/02/13 01:32:48;;;;;;;8.43;6.87;;;1.80;99.90;;;;;;5044724;28;20556;-86
2022/02/13 01:35:13;;;;;;;10.53;6.93;;;1.70;99.90;;;;;;5047318;28;20185;-86
2022/02/13 01:37:39;;;;;;;8.27;7.10;;;1.60;99.90;;;;;;5052072;28;20189;-86
2022/02/13 01:40:06;;;;;;;10.57;8.07;;;1.60;99.90;;;;;;5054527;28;20205;-89
2022/02/13 01:42:31;;;;;;;8.40;7.50;;;1.70;99.90;;;;;;5043470;28;20444;-86
2022/02/13 01:44:58;;;;;;;11.53;8.30;;;1.60;99.90;;;;;;5051897;28;20572;-86
2022/02/13 01:47:23;;;;;;;8.15;7.20;;;1.60;99.90;;;;;;5042995;28;20236;-86
2022/02/13 01:49:49;;;;;;;9.87;7.87;;;2.00;99.90;;;;;;5048262;28;20583;-89
2022/02/13 01:52:15;;;;;;;8.43;7.10;;;2.00;99.90;;;;;;5048290;28;20174;-86
2022/02/13 01:54:41;;;;;;;9.63;8.33;;;1.60;99.90;;;;;;5050172;28;20577;-86
2022/02/13 01:57:10;;;;;;;10.05;7.65;;;1.80;99.90;;;;;;5051473;28;20448;-88
2022/02/13 01:59:36;;;;;;;9.75;7.28;;;2.20;99.90;;;;;;5058110;28;20185;-86
2022/02/13 02:02:01;;;;;;;9.20;7.20;;;1.80;99.90;;;;;;5049292;28;20195;-86
2022/02/13 02:04:27;;;;;;;9.77;7.07;;;1.80;99.90;;;;;;5043984;28;20764;-85
2022/02/13 02:06:53;;;;;;;10.63;7.00;;;2.10;99.90;;;;;;5042658;28;20456;-86
2022/02/13 02:09:18;;;;;;;10.60;7.80;;;2.00;99.90;;;;;;5046430;28;20196;-87
2022/02/13 02:11:44;;;;;;;9.50;7.80;;;1.80;99.90;;;;;;5053600;28;20274;-87
2022/02/13 02:14:09;;;;;;;9.30;6.63;;;1.90;99.90;;;;;;5045237;28;20240;-86
2022/02/13 02:16:35;;;;;;;9.10;8.10;;;2.30;99.90;;;;;;5046923;28;20235;-87
2022/02/13 02:19:01;;;;;;;8.52;7.10;;;2.40;99.90;;;;;;5042363;28;20198;-86
2022/02/13 02:21:27;;;;;;;9.30;7.23;;;1.40;99.90;;;;;;5050340;28;20186;-86
2022/02/13 02:23:52;;;;;;;11.10;7.87;;;2.00;99.90;;;;;;5048554;28;20209;-86
2022/02/13 02:26:19;;;;;;;8.77;7.47;;;1.90;99.90;;;;;;5056211;28;20200;-86
2022/02/13 02:28:45;;;;;;;7.57;6.73;;;2.00;99.90;;;;;;5044338;28;20174;-87
2022/02/13 02:31:11;;;;;;;10.07;6.95;;;2.30;99.90;;;;;;5051344;28;20631;-89
2022/02/13 02:33:37;;;;;;;8.70;7.38;;;2.00;99.90;;;;;;5052467;28;20210;-86
2022/02/13 02:36:03;;;;;;;9.93;7.90;;;2.30;99.90;;;;;;5052675;28;20666;-89
2022/02/13 02:38:28;;;;;;;7.40;6.70;;;1.80;99.90;;;;;;5050615;28;20193;-87
2022/02/13 02:40:54;;;;;;;7.17;6.47;;;1.90;99.90;;;;;;5049528;28;20929;-88
2022/02/13 02:43:19;;;;;;;8.27;7.40;;;2.30;99.90;;;;;;5049997;28;20214;-86
2022/02/13 02:45:45;;;;;;;8.00;6.77;;;1.80;99.90;;;;;;5045089;28;21459;-88
2022/02/13 02:48:10;;;;;;;8.83;8.03;;;2.40;99.90;;;;;;5050417;28;20182;-87
2022/02/13 02:50:37;;;;;;;8.30;7.40;;;2.00;99.90;;;;;;5052522;28;20178;-85
2022/02/13 02:53:04;;;;;;;9.27;8.30;;;1.90;99.90;;;;;;5043057;28;20237;-89
2022/02/13 02:55:30;;;;;;;8.88;7.13;;;2.10;99.90;;;;;;5047506;28;20194;-86
2022/02/13 02:57:55;;;;;;;11.23;7.33;;;2.10;99.90;;;;;;5049868;28;20272;-89
2022/02/13 03:00:21;;;;;;;12.70;7.47;;;2.10;99.90;;;;;;5053113;28;20460;-88
2022/02/13 03:02:46;;;;;;;8.53;7.60;;;2.10;99.90;;;;;;5035740;28;21798;-86
2022/02/13 03:05:12;;;;;;;10.43;7.90;;;1.90;99.90;;;;;;5043962;28;20623;-89
2022/02/13 03:07:38;;;;;;;10.53;7.30;;;1.90;99.90;;;;;;5046754;28;20178;-86
2022/02/13 03:10:03;;;;;;;7.00;6.30;;;2.20;99.90;;;;;;5049757;28;20261;-86
2022/02/13 03:12:29;;;;;;;9.27;7.53;;;2.00;99.90;;;;;;5045995;28;20630;-86
2022/02/13 03:14:55;;;;;;;8.83;7.37;;;2.00;99.90;;;;;;5052501;28;20455;-86
2022/02/13 03:17:21;;;;;;;7.93;6.63;;;2.30;99.90;;;;;;5047301;28;20617;-88
2022/02/13 03:19:46;;;;;;;10.98;7.60;;;2.50;99.90;;;;;;5052470;28;20187;-88
2022/02/13 03:22:12;;;;;;;7.90;6.83;;;2.20;99.90;;;;;;5041199;28;20595;-88
2022/02/13 03:24:37;;;;;;;9.00;7.33;;;2.10;99.90;;;;;;5051407;28;20213;-88
2022/02/13 03:27:03;;;;;;;8.70;7.07;;;2.10;99.90;;;;;;5043918;28;20615;-86
2022/02/13 03:29:29;;;;;;;8.73;6.90;;;2.20;99.90;;;;;;5047075;28;20181;-88
2022/02/13 03:31:54;;;;;;;8.10;7.10;;;2.10;99.90;;;;;;5040286;28;20448;-88
2022/02/13 03:34:20;;;;;;;7.87;7.07;;;1.70;99.90;;;;;;5053950;28;20712;-88
2022/02/13 03:36:46;;;;;;;8.50;6.70;;;2.40;99.90;;;;;;5055251;28;20189;-88
2022/02/13 03:39:12;;;;;;;7.20;6.38;;;2.40;99.90;;;;;;5053618;28;20182;-89
2022/02/13 03:41:37;;;;;;;9.43;6.93;;;2.40;99.90;;;;;;5051667;28;20601;-89
2022/02/13 03:44:03;;;;;;;9.77;7.30;;;2.10;99.90;;;;;;5051727;28;20674;-89
2022/02/13 03:46:29;;;;;;;7.17;6.47;;;2.20;99.90;;;;;;5050729;28;20189;-88
2022/02/13 03:48:54;;;;;;;8.47;7.50;;;2.30;99.90;;;;;;5044896;28;20440;-89
2022/02/13 03:51:20;;;;;;;7.77;6.63;;;2.60;99.90;;;;;;5053197;28;20261;-88
2022/02/13 03:53:46;;;;;;;7.77;6.70;;;2.30;99.90;;;;;;5050445;28;20694;-88
2022/02/13 03:56:13;;;;;;;8.93;6.93;;;2.30;99.90;;;;;;5046955;28;20690;-88
2022/02/13 03:58:38;;;;;;;7.65;6.55;;;2.60;99.90;;;;;;5033905;28;20243;-88
2022/02/13 04:01:04;;;;;;;8.60;6.67;;;2.10;99.90;;;;;;5048300;28;20186;-87
2022/02/13 04:03:29;;;;;;;7.20;6.40;;;2.50;99.90;;;;;;5041450;28;20214;-89
2022/02/13 04:05:55;;;;;;;8.03;6.27;;;2.60;99.90;;;;;;5048671;28;20432;-88
2022/02/13 04:08:24;;;;;;;7.00;6.40;;;2.50;99.90;;;;;;5053138;28;20174;-88
2022/02/13 04:10:50;;;;;;;11.18;6.50;;;2.60;99.90;;;;;;5050631;28;20188;-86
2022/02/13 04:13:16;;;;;;;9.93;6.38;;;2.70;99.90;;;;;;5056108;28;20682;-87
2022/02/13 04:15:42;;;;;;;9.77;7.40;;;3.10;99.90;;;;;;5046248;28;20186;-87
2022/02/13 04:18:14;;;;;;;7.03;6.20;;;2.60;99.90;;;;;;5046849;28;20442;-87
2022/02/13 04:20:40;;;;;;;7.75;6.03;;;3.00;99.90;;;;;;5047188;28;20194;-87
2022/02/13 04:23:06;;;;;;;6.85;6.22;;;2.60;99.90;;;;;;5052044;28;20213;-86
2022/02/13 04:25:32;;;;;;;7.57;5.67;;;3.10;99.90;;;;;;5058982;28;20178;-87
2022/02/13 04:27:57;;;;;;;8.00;6.57;;;2.80;99.90;;;;;;5049242;28;20534;-87
2022/02/13 04:30:23;;;;;;;6.80;5.70;;;3.00;99.90;;;;;;5047803;28;20222;-87
2022/02/13 04:32:49;;;;;;;7.80;6.00;;;2.40;99.90;;;;;;5035864;28;20586;-87
2022/02/13 04:35:15;;;;;;;8.73;6.28;;;2.40;99.90;;;;;;5046203;28;20467;-88
2022/02/13 04:37:40;;;;;;;6.30;5.70;;;2.50;99.90;;;;;;5042670;28;20194;-88
2022/02/13 04:40:07;;;;;;;9.03;5.90;;;2.50;99.90;;;;;;5044466;28;20456;-87
2022/02/13 04:42:32;;;;;;;9.18;6.68;;;2.40;99.90;;;;;;5048033;28;20658;-87
2022/02/13 04:44:58;;;;;;;7.70;6.37;;;2.40;99.90;;;;;;5054370;28;20240;-87
2022/02/13 04:47:23;;;;;;;7.20;5.80;;;2.30;99.90;;;;;;5055753;28;20487;-87
2022/02/13 04:49:49;;;;;;;7.90;6.60;;;2.80;99.90;;;;;;5048786;28;20205;-88
2022/02/13 04:52:15;;;;;;;8.03;6.10;;;2.40;99.90;;;;;;5049302;28;20608;-88
2022/02/13 04:54:41;;;;;;;6.75;6.03;;;2.80;99.90;;;;;;5046817;28;20245;-88
2022/02/13 04:57:07;;;;;;;7.50;6.67;;;2.20;99.90;;;;;;5047315;28;20182;-87
2022/02/13 04:59:33;;;;;;;9.77;6.10;;;2.30;99.90;;;;;;5046602;28;20247;-88
2022/02/13 05:02:00;;;;;;;7.88;6.20;;;2.50;99.90;;;;;;5053023;28;20443;-87
2022/02/13 05:04:25;;;;;;;6.80;6.05;;;2.20;99.90;;;;;;5038901;28;20716;-87
2022/02/13 05:06:51;;;;;;;6.43;5.60;;;2.20;99.90;;;;;;5048634;28;20182;-87
2022/02/13 05:09:16;;;;;;;9.30;5.93;;;2.40;99.90;;;;;;5055657;28;20668;-88
2022/02/13 05:11:43;;;;;;;7.43;6.33;;;2.50;99.90;;;;;;5049025;28;20320;-88
2022/02/13 05:14:09;;;;;;;6.72;6.05;;;2.20;99.90;;;;;;5049509;28;20217;-87
2022/02/13 05:16:35;;;;;;;7.73;6.63;;;2.80;99.90;;;;;;5050076;28;20197;-88
2022/02/13 05:19:00;;;;;;;8.40;6.27;;;2.30;99.90;;;;;;5043667;28;20574;-87
2022/02/13 05:21:26;;;;;;;7.90;5.57;;;2.80;99.90;;;;;;5048412;28;20181;-87
2022/02/13 05:23:52;;;;;;;7.28;5.95;;;2.30;99.90;;;;;;5047470;28;20709;-87
2022/02/13 05:26:17;;;;;;;8.23;7.00;;;2.30;99.90;;;;;;5043382;28;20182;-86
2022/02/13 05:28:43;;;;;;;6.27;5.63;;;2.40;99.90;;;;;;5048656;28;20181;-87
2022/02/13 05:31:09;;;;;;;9.20;5.90;;;2.60;99.90;;;;;;5053976;28;20428;-87
2022/02/13 05:33:35;;;;;;;7.37;6.67;;;2.60;99.90;;;;;;5047794;28;20987;-86
2022/02/13 05:36:00;;;;;;;6.97;6.07;;;2.30;99.90;;;;;;5045751;28;20495;-87
2022/02/13 05:38:26;;;;;;;6.97;6.27;;;2.20;99.90;;;;;;5038809;28;20189;-87
2022/02/13 05:40:52;;;;;;;6.33;5.73;;;2.30;99.90;;;;;;5049199;28;20216;-87
2022/02/13 05:43:17;;;;;;;8.10;6.10;;;2.00;99.90;;;;;;5048542;28;20612;-87
2022/02/13 05:45:43;;;;;;;6.57;5.50;;;2.00;99.90;;;;;;5053380;28;20525;-87
2022/02/13 05:48:11;;;;;;;8.03;6.37;;;2.30;99.90;;;;;;5043868;28;20602;-86
2022/02/13 05:50:37;;;;;;;6.57;5.30;;;2.20;99.90;;;;;;5043960;28;20178;-87
2022/02/13 05:53:03;;;;;;;7.28;6.18;;;2.10;99.90;;;;;;5050503;28;20677;-87
2022/02/13 05:55:29;;;;;;;6.03;4.97;;;2.10;99.90;;;;;;5051419;28;20215;-87
2022/02/13 05:57:54;;;;;;;7.97;6.07;;;2.00;99.90;;;;;;5045055;28;20228;-86
2022/02/13 06:00:20;;;;;;;6.67;5.87;;;2.10;99.90;;;;;;5059210;28;20232;-87
2022/02/13 06:02:45;;;;;;;7.03;5.97;;;2.80;99.90;;;;;;5046711;28;20670;-86
2022/02/13 06:05:11;;;;;;;6.80;5.83;;;2.10;99.90;;;;;;5043394;28;20190;-85
2022/02/13 06:07:39;;;;;;;8.53;5.40;;;2.50;99.90;;;;;;5049398;28;20346;-86
2022/02/13 06:10:06;;;;;;;6.05;5.32;;;2.40;99.90;;;;;;5052367;28;20264;-86
2022/02/13 06:12:32;;;;;;;8.45;5.45;;;2.40;99.90;;;;;;5043025;28;20178;-81
2022/02/13 06:14:58;;;;;;;6.27;5.67;;;2.50;99.90;;;;;;5049259;28;20252;-84
2022/02/13 06:17:23;;;;;;;6.20;5.40;;;2.50;99.90;;;;;;5041215;28;20561;-80
2022/02/13 06:19:49;;;;;;;8.80;5.30;;;2.50;99.90;;;;;;5046578;28;20551;-83
2022/02/13 06:22:14;;;;;;;6.53;5.60;;;2.50;99.90;;;;;;5045380;28;20178;-82
2022/02/13 06:24:40;;;;;;;6.40;5.80;;;2.60;99.90;;;;;;5042415;28;20237;-80
2022/02/13 06:27:06;;;;;;;6.53;5.70;;;2.60;99.90;;;;;;5040065;28;20191;-79
2022/02/13 06:29:31;;;;;;;7.53;5.65;;;2.90;99.90;;;;;;5042078;28;20233;-81
2022/02/13 06:31:57;;;;;;;6.70;5.27;;;3.00;99.90;;;;;;5050808;28;20193;-89
2022/02/13 06:34:23;;;;;;;7.37;5.50;;;2.80;99.90;;;;;;5061605;28;20210;-85
2022/02/13 06:36:48;;;;;;;7.30;5.27;;;3.20;99.90;;;;;;5044810;28;20499;-85
2022/02/13 06:39:14;;;;;;;4.73;4.23;;;3.30;99.90;;;;;;5047450;28;20673;-84
2022/02/13 06:41:40;;;;;;;5.50;4.83;;;3.10;99.90;;;;;;5043268;28;20767;-81
2022/02/13 06:44:05;;;;;;;6.80;4.80;;;3.30;99.90;;;;;;5043303;28;20519;-80
2022/02/13 06:46:31;;;;;;;5.30;4.57;;;3.50;99.90;;;;;;5047424;28;20633;-78
2022/02/13 06:48:56;;;;;;;5.77;5.23;;;3.40;99.90;;;;;;5039232;28;20202;-80
2022/02/13 06:51:22;;;;;;;6.77;5.33;;;3.50;99.90;;;;;;5050876;28;20213;-81
2022/02/13 06:53:47;;;;;;;5.20;4.70;;;3.50;99.90;;;;;;5044433;28;20206;-82
2022/02/13 06:56:13;;;;;;;6.67;5.30;;;3.70;99.90;;;;;;5045537;28;20273;-78
2022/02/13 06:58:40;;;;;;;5.93;5.20;;;4.00;99.90;;;;;;5037084;28;20564;-80
2022/02/13 07:01:08;;;;;;;9.30;4.72;;;4.50;99.90;;;;;;5052709;28;20537;-81
2022/02/13 07:03:34;;;;;;;6.57;5.10;;;3.80;99.90;;;;;;5041657;28;20228;-82
2022/02/13 07:06:00;;;;;;;6.22;5.00;;;4.20;99.90;;;;;;5050117;28;20174;-82
2022/02/13 07:08:25;;;;;;;6.40;4.63;;;3.90;99.90;;;;;;5042906;28;20650;-81
2022/02/13 07:10:51;;;;;;;6.20;4.67;;;4.20;99.90;;;;;;5037893;28;20230;-82
2022/02/13 07:13:17;;;;;;;6.43;5.00;;;4.00;99.90;;;;;;5046544;28;20198;-82
2022/02/13 07:15:42;;;;;;;5.73;5.00;;;3.90;99.90;;;;;;5047902;28;20198;-83
2022/02/13 07:18:08;;;;;;;6.07;5.23;;;3.70;99.90;;;;;;5042730;28;20185;-83
2022/02/13 07:20:33;;;;;;;6.03;5.40;;;4.00;99.90;;;;;;5047995;28;20185;-89
2022/02/13 07:22:59;;;;;;;6.03;4.93;;;4.10;99.90;;;;;;5046226;28;20225;-83
2022/02/13 07:25:24;;;;;;;7.77;7.00;;;4.00;99.90;;;;;;5053112;28;20276;-89
2022/02/13 07:27:50;;;;;;;6.70;5.90;;;4.10;99.90;;;;;;5048129;28;20182;-90
2022/02/13 07:30:15;;;;;;;6.00;5.13;;;4.30;99.90;;;;;;5060673;28;20192;-93
2022/02/13 07:32:44;;;;;;;6.50;5.80;;;4.60;99.90;;;;;;5061624;28;20186;-94
2022/02/13 07:35:11;;;;;;;8.48;5.72;;;4.20;99.90;;;;;;5054901;28;20186;-92
2022/02/13 07:37:36;;;;;;;9.07;5.80;;;4.40;99.90;;;;;;5041998;28;20178;-90
2022/02/13 07:40:04;;;;;;;6.83;5.60;;;4.30;99.90;;;;;;5057007;28;20226;-89
2022/02/13 07:42:30;;;;;;;6.45;4.95;;;4.40;99.90;;;;;;5049809;28;20189;-92
2022/02/13 07:44:56;;;;;;;5.47;4.78;;;4.90;99.90;;;;;;5047506;28;20218;-91
2022/02/13 07:47:21;;;;;;;5.73;4.83;;;5.10;99.90;;;;;;5041278;28;20187;-83
2022/02/13 07:49:47;;;;;;;6.57;5.40;;;4.60;99.90;;;;;;5053764;28;20178;-93
2022/02/13 07:52:13;;;;;;;8.30;5.37;;;5.10;99.90;;;;;;5049155;28;20223;-92
2022/02/13 07:54:39;;;;;;;5.90;5.20;;;5.00;99.90;;;;;;5059857;28;20211;-93
2022/02/13 07:57:05;;;;;;;7.53;5.30;;;5.30;99.90;;;;;;5042822;28;20214;-93
2022/02/13 07:59:31;;;;;;;5.47;4.97;;;5.40;99.90;;;;;;5049829;28;20194;-92
2022/02/13 08:01:57;;;;;;;6.22;5.60;;;5.00;99.90;;;;;;5048293;28;20189;-93
2022/02/13 08:04:22;;;;;;;7.20;5.30;;;5.40;99.90;;;;;;5046590;28;20567;-94
2022/02/13 08:06:48;;;;;;;8.60;5.60;;;4.90;99.90;;;;;;5046319;28;20182;-93
2022/02/13 08:09:15;;;;;;;6.03;5.33;;;4.90;99.90;;;;;;5047348;28;20289;-93
2022/02/13 08:11:41;;;;;;;12.25;5.68;;;5.10;99.90;;;;;;5045658;28;20262;-94
2022/02/13 08:14:06;;;;;;;5.97;5.40;;;5.20;99.90;;;;;;5047234;28;20313;-93
2022/02/13 08:16:32;;;;;;;6.87;5.47;;;4.80;99.60;;;;;;5052206;28;20192;-94
2022/02/13 08:18:57;;;;;;;6.13;5.13;;;5.80;99.90;;;;;;5039186;28;20684;-94
2022/02/13 08:21:23;;;;;;;6.60;5.90;;;5.90;99.90;;;;;;5046085;28;20189;-93
2022/02/13 08:23:49;;;;;;;5.97;4.93;;;6.00;99.80;;;;;;5053456;22;20264;-62
2022/02/13 08:26:16;;;;;;;6.22;5.63;;;5.70;99.00;;;;;;5015767;28;20182;-62
2022/02/13 08:28:42;;;;;;;6.25;5.22;;;5.80;98.80;;;;;;5021686;28;20193;-62
2022/02/13 08:31:08;;;;;;;5.90;5.30;;;5.90;99.10;;;;;;5010024;28;20205;-62
2022/02/13 08:33:33;;;;;;;6.23;4.90;;;5.90;99.20;;;;;;4992703;28;20204;-62
2022/02/13 08:35:59;;;;;;;5.57;4.67;;;6.10;98.70;;;;;;5002868;28;20285;-62
2022/02/13 08:38:25;;;;;;;4.30;3.90;;;6.00;98.30;;;;;;5003556;28;20188;-62
2022/02/13 08:40:51;;;;;;;10.07;5.80;;;6.00;98.20;;;;;;5002129;28;20661;-62
2022/02/13 08:43:18;;;;;;;5.82;5.18;;;6.50;98.20;;;;;;5004952;28;20206;-63
2022/02/13 08:45:46;;;;;;;8.20;6.22;;;6.20;98.10;;;;;;5001197;28;20184;-61
2022/02/13 08:48:12;;;;;;;6.90;5.10;;;6.40;98.10;;;;;;4997728;28;20182;-62
2022/02/13 08:50:39;;;;;;;5.07;4.57;;;6.50;97.80;;;;;;4997946;28;20579;-61
2022/02/13 08:53:06;;;;;;;5.63;5.03;;;6.70;97.50;;;;;;5000123;28;20441;-62
2022/02/13 08:55:31;;;;;;;6.93;5.55;;;6.20;97.20;;;;;;5007305;28;20560;-62
2022/02/13 08:57:57;;;;;;;6.83;5.20;;;6.70;97.30;;;;;;5000475;28;20186;-61
2022/02/13 09:00:23;;;;;;;6.30;4.97;;;7.20;97.20;;;;;;5002051;28;20280;-61
2022/02/13 09:02:48;;;;;;;6.57;5.07;;;7.10;97.00;;;;;;4997057;28;20183;-61
2022/02/13 09:05:14;;;;;;;7.17;4.97;;;7.10;96.90;;;;;;5009160;28;20640;-61
2022/02/13 09:07:40;;;;;;;5.70;4.83;;;7.30;97.00;;;;;;5003801;28;20178;-61
2022/02/13 09:10:09;;;;;;;6.30;5.32;;;7.80;96.30;;;;;;5005803;28;20208;-61
2022/02/13 09:12:35;;;;;;;6.47;5.30;;;9.10;94.70;;;;;;5010975;28;20184;-62
2022/02/13 09:15:01;;;;;;;6.53;5.07;;;10.60;91.00;;;;;;5005555;28;20308;-62
2022/02/13 09:17:26;;;;;;;6.53;5.60;;;11.90;86.60;;;;;;5001356;28;20196;-62
2022/02/13 09:19:52;;;;;;;9.90;5.00;;;12.60;82.20;;;;;;4999279;28;20485;-61
2022/02/13 09:22:18;;;;;;;6.43;5.30;;;12.90;80.30;;;;;;5009257;28;20219;-61
2022/02/13 09:24:43;;;;;;;7.93;5.53;;;13.00;78.00;;;;;;5009472;28;20223;-61
2022/02/13 09:27:10;;;;;;;6.73;5.70;;;12.50;78.80;;;;;;5020267;28;20187;-61
2022/02/13 09:29:36;;;;;;;7.80;5.90;;;12.60;79.40;;;;;;4998981;28;20302;-61
2022/02/13 09:32:03;;;;;;;6.20;5.35;;;12.20;79.70;;;;;;5002448;28;20207;-61
2022/02/13 09:34:30;;;;;;;6.63;5.50;;;12.50;79.70;;;;;;5002521;28;20192;-62
2022/02/13 09:36:56;;;;;;;8.82;6.97;;;13.70;78.90;;;;;;5005283;28;20565;-61
2022/02/13 09:39:23;;;;;;;7.40;5.57;;;13.90;76.70;;;;;;5010401;28;20245;-61
2022/02/13 09:41:49;;;;;;;12.52;6.50;;;15.10;73.70;;;;;;5007941;28;20218;-61
2022/02/13 09:44:17;;;;;;;5.95;5.35;;;15.90;69.30;;;;;;4998127;28;20207;-62
2022/02/13 09:46:44;;;;;;;7.40;5.78;;;16.10;67.80;;;;;;5010095;28;20671;-62
2022/02/13 09:49:10;;;;;;;7.30;6.03;;;16.40;66.30;;;;;;4996705;28;20209;-61
2022/02/13 09:51:36;;;;;;;5.80;5.20;;;15.90;65.70;;;;;;5003725;28;20242;-61
2022/02/13 09:54:02;;;;;;;7.65;5.15;;;14.90;74.00;;;;;;5005415;28;20442;-61
2022/02/13 09:56:28;;;;;;;7.32;6.35;;;14.20;73.40;;;;;;5008239;28;20213;-61
2022/02/13 09:58:54;;;;;;;7.37;5.20;;;14.40;72.60;;;;;;5002238;28;20648;-61
2022/02/13 10:01:34;;;;;;;8.93;5.95;;;14.70;74.10;;;;;;5003040;28;20512;-62
2022/02/13 10:04:00;;;;;;;6.70;5.93;;;14.80;71.10;;;;;;5000368;28;20582;-61
2022/02/13 10:06:26;;;;;;;6.30;5.70;;;15.50;70.20;;;;;;5000309;28;20176;-61
2022/02/13 10:08:54;;;;;;;7.40;6.10;;;16.30;68.70;;;;;;5004555;28;20187;-61
2022/02/13 10:11:33;;;;;;;7.78;6.25;;;16.80;65.60;;;;;;4996864;28;20464;-62
2022/02/13 10:14:03;;;;;;;10.02;7.18;;;16.90;62.70;;;;;;5003621;28;20197;-62
2022/02/13 10:16:34;;;;;;;7.53;5.70;;;16.20;63.20;;;;;;4998132;28;20672;-61
2022/02/13 10:19:05;;;;;;;9.70;6.70;;;16.30;64.10;;;;;;5001748;28;20191;-62
2022/02/13 10:21:52;;;;;;;6.18;5.53;;;16.20;63.50;;;;;;5000186;28;20203;-62
2022/02/13 10:24:37;;;;;;;6.80;6.20;;;16.40;63.60;;;;;;5003769;28;20222;-62
2022/02/13 10:27:05;;;;;;;9.43;6.78;;;16.00;62.90;;;;;;5004038;28;20210;-63
2022/02/13 10:29:33;;;;;;;6.30;5.68;;;15.80;64.20;;;;;;5002384;28;20187;-62
2022/02/13 10:32:17;;;;;;;6.18;5.30;;;15.70;64.10;;;;;;5003715;28;20198;-62
2022/02/13 10:35:16;;;;;;;7.05;6.35;;;15.30;65.10;;;;;;5003878;28;20269;-63
2022/02/13 10:37:55;;;;;;;7.07;6.22;;;14.90;66.90;;;;;;4979075;28;20227;-63
2022/02/13 10:40:31;;;;;;;8.05;6.63;;;15.80;66.20;;;;;;5000840;28;20718;-63
2022/02/13 10:43:07;;;;;;;8.20;6.10;;;16.10;64.40;;;;;;4993059;28;20187;-63
2022/02/13 10:45:36;;;;;;;8.57;6.38;;;16.10;63.50;;;;;;5004396;28;20266;-65
2022/02/13 10:48:05;;;;;;;6.53;5.88;;;16.80;62.80;;;;;;4995435;28;20696;-63
2022/02/13 10:50:35;;;;;;;8.40;6.45;;;16.30;63.00;;;;;;5006112;28;20281;-68
2022/02/13 10:53:02;;;;;;;7.50;6.10;;;16.30;62.10;;;;;;5005403;28;20179;-68
2022/02/13 10:55:29;;;;;;;8.00;6.78;;;16.90;62.20;;;;;;5004126;28;20183;-71
2022/02/13 10:57:57;;;;;;;6.88;6.18;;;16.70;61.40;;;;;;5005012;28;20179;-66
2022/02/13 11:00:23;;;;;;;8.63;6.40;;;17.10;60.80;;;;;;5004382;28;20564;-61
2022/02/13 11:02:50;;;;;;;6.90;6.20;;;17.10;60.20;;;;;;4997089;28;20175;-62
2022/02/13 11:05:21;;;;;;;8.68;6.80;;;18.00;58.50;;;;;;5002671;28;20183;-63
2022/02/13 11:07:52;;;;;;;6.68;5.78;;;18.10;57.80;;;;;;5002687;28;20202;-64
2022/02/13 11:10:26;;;;;;;6.90;6.20;;;18.30;56.70;;;;;;4998809;28;20230;-60
2022/02/13 11:12:56;;;;;;;7.15;6.40;;;18.00;57.00;;;;;;4998006;28;20552;-60
2022/02/13 11:15:32;;;;;;;8.60;6.10;;;17.70;57.70;;;;;;5000063;28;20183;-58
2022/02/13 11:18:02;;;;;;;7.20;5.72;;;17.80;57.60;;;;;;4998750;28;20182;-65
2022/02/13 11:20:29;;;;;;;9.68;6.45;;;17.80;57.10;;;;;;4997088;28;20207;-64
2022/02/13 11:23:35;;;;;;;7.32;6.07;;;17.80;56.50;;;;;;5003652;28;20190;-65
2022/02/13 11:26:06;;;;;;;10.43;6.30;;;19.10;55.40;;;;;;4996093;28;20702;-65
2022/02/13 11:28:46;;;;;;;7.35;6.55;;;19.30;54.40;;;;;;5001087;28;20545;-59
2022/02/13 11:31:33;;;;;;;7.30;6.47;;;18.30;55.30;;;;;;5002285;28;20206;-58
2022/02/13 11:33:59;;;;;;;7.45;6.20;;;17.50;55.90;;;;;;4999810;28;20540;-59
2022/02/13 11:36:49;;;;;;;7.55;6.75;;;17.40;57.10;;;;;;5000859;28;20289;-58
2022/02/13 11:39:31;;;;;;;7.45;5.65;;;17.50;56.80;;;;;;4997912;28;20256;-58
2022/02/13 11:41:59;;;;;;;7.15;5.45;;;17.30;56.60;;;;;;4998257;28;20309;-58
2022/02/13 11:44:35;;;;;;;6.68;4.63;;;17.20;55.10;;;;;;5000595;28;20219;-62
2022/02/13 11:47:02;;;;;;;5.00;4.53;;;17.10;55.40;;;;;;5006918;28;20646;-61
2022/02/13 11:49:28;;;;;;;5.07;4.57;;;17.00;54.40;;;;;;5000947;28;20205;-60
2022/02/13 11:51:55;;;;;;;7.30;4.40;;;17.20;54.90;;;;;;5002677;28;20199;-60
2022/02/13 11:54:43;;;;;;;5.18;4.10;;;17.10;54.60;;;;;;5001528;28;20656;-61
2022/02/13 11:57:19;;;;;;;6.88;4.32;;;17.40;54.30;;;;;;4995469;28;20588;-62
2022/02/13 11:59:51;;;;;;;5.47;3.63;;;16.80;53.80;;;;;;5000707;28;20479;-65
2022/02/13 12:02:37;;;;;;;4.00;3.60;;;16.70;53.70;;;;;;5004336;28;20205;-65
2022/02/13 12:05:06;;;;;;;4.03;3.70;;;16.60;53.90;;;;;;4994112;28;20313;-63
2022/02/13 12:07:37;;;;;;;5.30;3.88;;;15.70;54.40;;;;;;5003200;28;20187;-64
2022/02/13 12:10:10;;;;;;;5.70;4.05;;;15.70;55.00;;;;;;5007035;28;20190;-63
2022/02/13 12:12:35;;;;;;;7.32;4.30;;;15.80;56.10;;;;;;5000463;28;20214;-62
2022/02/13 12:15:01;;;;;;;6.10;4.10;;;15.60;55.90;;;;;;5000319;28;20223;-65
2022/02/13 12:17:29;;;;;;;5.10;4.10;;;15.70;55.40;;;;;;5000404;28;20443;-60
2022/02/13 12:20:01;;;;;;;5.90;3.80;;;15.50;55.90;;;;;;5005322;28;20452;-61
2022/02/13 12:22:27;;;;;;;6.85;3.72;;;15.60;56.20;;;;;;5004082;28;20203;-60
2022/02/13 12:24:57;;;;;;;4.35;3.97;;;15.70;55.10;;;;;;5001869;28;20648;-60
2022/02/13 12:27:22;;;;;;;5.70;3.70;;;15.40;55.70;;;;;;4995182;28;20719;-64
2022/02/13 12:29:50;;;;;;;4.00;3.37;;;15.40;55.30;;;;;;5007445;28;20274;-61
2022/02/13 12:32:16;;;;;;;6.35;3.78;;;15.00;56.30;;;;;;4999979;28;20308;-61
2022/02/13 12:35:03;;;;;;;5.10;3.80;;;14.80;55.60;;;;;;5002312;28;20187;-63
2022/02/13 12:37:51;;;;;;;4.85;3.50;;;15.10;56.20;;;;;;5002522;28;20201;-63
2022/02/13 12:40:17;;;;;;;4.63;3.67;;;15.10;56.20;;;;;;5002748;28;20226;-64
2022/02/13 12:42:48;;;;;;;4.27;3.87;;;14.90;56.60;;;;;;4997124;28;20739;-61
2022/02/13 12:45:22;;;;;;;4.95;3.72;;;14.80;56.80;;;;;;5004958;28;20195;-63
2022/02/13 12:47:54;;;;;;;4.05;3.65;;;14.50;56.50;;;;;;4998190;28;20601;-60
2022/02/13 12:50:22;;;;;;;11.23;3.90;;;14.40;56.70;;;;;;5004954;28;20253;-61
2022/02/13 12:52:49;;;;;;;5.13;3.60;;;14.50;57.10;;;;;;5006117;28;20179;-64